Time;durP1;ratioP1;P1;durP2;ratioP2;P2;SDS_P1;SDS_P2;PMS_P1;PMS_P2;Temp;Humidity;BMP_temperature;BMP_pressure;BME280_temperature;BME280_humidity;BME280_pressure;Samples;Min_cycle;Max_cycle;Signal;HPM_P1;HPM_P2
2021/12/27 00:01:33;;;;;;;12.30;5.15;;;;;;;12.14;90.90;99582.72;4938697;29;20059;-71
2021/12/27 00:04:00;;;;;;;15.38;4.10;;;;;;;12.15;90.09;99569.72;4921989;29;20056;-70
2021/12/27 00:06:28;;;;;;;10.82;4.07;;;;;;;12.10;89.66;99565.25;4918291;29;20067;-70
2021/12/27 00:08:55;;;;;;;9.15;2.55;;;;;;;12.11;90.24;99566.88;4920017;28;20056;-69
2021/12/27 00:11:22;;;;;;;11.38;2.70;;;;;;;12.10;90.27;99568.00;4919302;29;20048;-69
2021/12/27 00:13:50;;;;;;;11.65;2.95;;;;;;;12.17;89.93;99559.94;4917832;29;20056;-70
2021/12/27 00:16:18;;;;;;;10.68;2.60;;;;;;;12.17;89.63;99556.34;4902836;29;20063;-70
2021/12/27 00:18:45;;;;;;;8.23;2.30;;;;;;;12.21;88.94;99554.50;4918552;29;20052;-69
2021/12/27 00:21:12;;;;;;;12.13;2.65;;;;;;;12.12;89.54;99562.94;4919479;29;20055;-70
2021/12/27 00:23:40;;;;;;;10.70;2.63;;;;;;;12.16;89.45;99550.06;4918905;29;20492;-70
2021/12/27 00:26:08;;;;;;;8.95;2.63;;;;;;;12.21;89.17;99549.78;4919193;29;20177;-69
2021/12/27 00:28:35;;;;;;;12.88;3.05;;;;;;;12.38;88.89;99554.19;4887383;29;20059;-70
2021/12/27 00:31:03;;;;;;;11.60;2.75;;;;;;;12.14;89.51;99548.78;4902573;29;20511;-69
2021/12/27 00:33:30;;;;;;;9.60;2.70;;;;;;;12.35;89.22;99544.66;4919044;29;20067;-69
2021/12/27 00:35:58;;;;;;;7.35;2.63;;;;;;;12.20;88.71;99542.66;4902173;29;20052;-69
2021/12/27 00:38:25;;;;;;;8.48;2.13;;;;;;;12.33;88.53;99538.69;4918976;29;20044;-70
2021/12/27 00:40:52;;;;;;;7.32;2.03;;;;;;;12.20;88.89;99530.81;4918767;29;20060;-69
2021/12/27 00:43:20;;;;;;;8.02;2.33;;;;;;;12.06;89.69;99528.47;4917584;29;20060;-69
2021/12/27 00:45:47;;;;;;;10.63;2.30;;;;;;;12.07;89.66;99537.53;4919016;29;20447;-70
2021/12/27 00:48:17;;;;;;;7.70;1.98;;;;;;;12.01;90.21;99527.94;4919147;29;20063;-70
2021/12/27 00:50:45;;;;;;;7.32;2.63;;;;;;;12.07;90.24;99527.31;4921415;29;20507;-70
2021/12/27 00:53:12;;;;;;;13.32;6.97;;;;;;;12.00;90.31;99524.34;4923604;29;20055;-70
2021/12/27 00:55:40;;;;;;;16.40;7.82;;;;;;;12.10;89.60;99534.09;4924869;29;20063;-69
2021/12/27 00:58:07;;;;;;;13.38;5.25;;;;;;;12.24;89.36;99537.22;4925137;29;20052;-70
2021/12/27 01:00:34;;;;;;;8.48;3.05;;;;;;;12.08;89.45;99539.94;4923938;29;20055;-69
2021/12/27 01:03:02;;;;;;;11.05;3.35;;;;;;;11.99;89.91;99533.00;4934285;29;20139;-71
2021/12/27 01:05:30;;;;;;;12.07;2.85;;;;;;;12.08;89.29;99528.91;4944004;29;20078;-71
2021/12/27 01:07:57;;;;;;;11.13;2.60;;;;;;;11.96;89.67;99531.72;4944098;29;20051;-70
2021/12/27 01:13:17;;;;;;;7.03;1.92;;;;;;;11.92;90.26;99522.56;4943762;29;20059;-69
2021/12/27 01:16:10;;;;;;;8.00;2.40;;;;;;;12.06;89.81;99525.72;4944049;29;20102;-69
2021/12/27 01:18:46;;;;;;;10.77;2.00;;;;;;;11.91;90.10;99514.59;4943877;29;20059;-70
2021/12/27 01:21:18;;;;;;;11.00;2.42;;;;;;;12.01;89.90;99519.66;4943057;29;20392;-69
2021/12/27 01:23:45;;;;;;;9.23;2.40;;;;;;;12.11;89.16;99514.44;4943686;29;20062;-71
2021/12/27 01:26:13;;;;;;;10.85;3.58;;;;;;;11.99;89.66;99508.97;4943482;29;20054;-70
2021/12/27 01:28:41;;;;;;;10.23;5.05;;;;;;;12.13;89.19;99506.56;4942785;29;20059;-69
2021/12/27 01:31:09;;;;;;;12.40;5.20;;;;;;;12.07;89.31;99507.19;4944129;29;20059;-70
2021/12/27 01:33:38;;;;;;;9.98;2.78;;;;;;;12.07;89.77;99499.72;4943759;29;20566;-70
2021/12/27 01:36:06;;;;;;;7.85;2.30;;;;;;;12.14;88.88;99496.34;4944364;29;20058;-69
2021/12/27 01:38:37;;;;;;;6.25;2.22;;;;;;;12.08;89.43;99493.03;4943913;29;20059;-70
2021/12/27 01:41:05;;;;;;;12.15;2.25;;;;;;;12.09;89.31;99493.84;4942368;29;20063;-69
2021/12/27 01:43:35;;;;;;;6.90;2.13;;;;;;;12.12;89.18;99487.59;4942437;29;20059;-70
2021/12/27 01:46:04;;;;;;;11.15;2.78;;;;;;;12.07;89.29;99493.38;4943922;29;20507;-69
2021/12/27 01:48:37;;;;;;;14.40;2.63;;;;;;;12.22;88.66;99484.34;4943900;29;20052;-71
2021/12/27 01:51:07;;;;;;;8.05;2.80;;;;;;;12.21;88.38;99483.53;4943887;29;20056;-68
2021/12/27 01:53:37;;;;;;;8.00;2.60;;;;;;;11.99;89.12;99478.59;4941946;29;20063;-70
2021/12/27 01:56:05;;;;;;;7.47;1.80;;;;;;;12.06;89.31;99489.84;4943700;29;20059;-69
2021/12/27 01:58:34;;;;;;;8.70;2.22;;;;;;;12.05;89.62;99488.22;4943609;29;20063;-70
2021/12/27 02:01:05;;;;;;;13.95;2.38;;;;;;;12.10;89.21;99479.69;4941916;29;20055;-69
2021/12/27 02:03:33;;;;;;;8.80;2.13;;;;;;;11.76;90.27;99490.53;4926365;29;20250;-69
2021/12/27 02:06:06;;;;;;;9.35;2.72;;;;;;;12.11;89.80;99497.06;4905116;29;20056;-69
2021/12/27 02:08:35;;;;;;;9.70;2.17;;;;;;;11.95;89.45;99487.94;4921563;29;20055;-69
2021/12/27 02:11:03;;;;;;;8.50;1.98;;;;;;;12.01;90.63;99489.28;4921629;29;20048;-69
2021/12/27 02:13:31;;;;;;;9.35;1.98;;;;;;;11.98;90.45;99484.44;4921811;28;20068;-70
2021/12/27 02:15:58;;;;;;;7.95;2.53;;;;;;;11.82;91.95;99483.63;4920351;29;20060;-69
2021/12/27 02:18:26;;;;;;;8.18;2.13;;;;;;;11.80;92.56;99480.41;4920171;29;20055;-69
2021/12/27 02:20:53;;;;;;;9.23;2.05;;;;;;;11.94;92.02;99478.84;4919886;29;20067;-69
2021/12/27 02:23:22;;;;;;;6.50;2.13;;;;;;;12.10;91.35;99476.13;4919541;29;20063;-70
2021/12/27 02:25:50;;;;;;;11.73;2.08;;;;;;;11.97;91.19;99466.31;4921133;29;20380;-70
2021/12/27 02:28:19;;;;;;;8.50;2.10;;;;;;;11.83;91.82;99468.66;4921016;29;20412;-69
2021/12/27 02:30:50;;;;;;;15.85;2.78;;;;;;;11.99;91.15;99461.25;4921196;29;20052;-69
2021/12/27 02:33:17;;;;;;;7.18;2.05;;;;;;;12.02;91.08;99461.34;4919766;29;20059;-69
2021/12/27 02:35:47;;;;;;;6.97;2.50;;;;;;;11.99;90.43;99455.72;4921741;29;20048;-70
2021/12/27 02:38:18;;;;;;;13.18;3.75;;;;;;;11.98;90.75;99460.44;4921308;29;20052;-69
2021/12/27 02:40:45;;;;;;;9.45;2.78;;;;;;;11.78;91.63;99460.66;4919656;29;20484;-68
2021/12/27 02:43:18;;;;;;;13.25;4.30;;;;;;;11.94;91.28;99450.47;4920482;29;20056;-69
2021/12/27 02:45:56;;;;;;;12.50;2.85;;;;;;;11.82;90.89;99458.81;4920936;29;20056;-69
2021/12/27 02:48:26;;;;;;;10.70;2.70;;;;;;;11.84;91.06;99453.72;4920927;29;20180;-69
2021/12/27 02:50:55;;;;;;;16.23;3.47;;;;;;;12.02;90.54;99446.72;4919880;29;20060;-69
2021/12/27 02:53:24;;;;;;;14.45;3.38;;;;;;;11.98;90.30;99448.56;4920878;29;20447;-69
2021/12/27 02:55:53;;;;;;;14.05;2.90;;;;;;;11.96;90.22;99439.88;4920694;29;20056;-68
2021/12/27 02:58:21;;;;;;;13.83;2.93;;;;;;;11.99;89.67;99439.16;4920997;29;20060;-71
2021/12/27 03:00:52;;;;;;;14.05;3.83;;;;;;;12.01;89.66;99431.34;4920635;29;20075;-70
2021/12/27 03:03:20;;;;;;;17.50;3.63;;;;;;;11.93;89.27;99437.81;4932054;29;20062;-69
2021/12/27 03:05:47;;;;;;;11.23;3.20;;;;;;;11.89;89.51;99434.16;4939490;29;20054;-69
2021/12/27 03:08:16;;;;;;;15.20;3.30;;;;;;;11.94;89.40;99431.94;4939731;29;20148;-70
2021/12/27 03:10:50;;;;;;;21.08;3.95;;;;;;;12.03;89.13;99431.78;4939613;29;20056;-69
2021/12/27 03:13:20;;;;;;;16.73;3.80;;;;;;;12.09;88.79;99425.66;4938777;29;20063;-69
2021/12/27 03:15:55;;;;;;;20.27;3.30;;;;;;;12.01;88.26;99414.78;4939628;29;20044;-71
2021/12/27 03:18:22;;;;;;;14.40;2.72;;;;;;;12.00;88.23;99427.75;4939303;29;20169;-69
2021/12/27 03:20:51;;;;;;;15.45;3.03;;;;;;;12.02;88.26;99421.88;4939622;29;20519;-68
2021/12/27 03:23:18;;;;;;;18.45;3.28;;;;;;;12.00;88.49;99421.44;4938974;29;20174;-70
2021/12/27 03:25:45;;;;;;;11.10;3.00;;;;;;;11.84;88.95;99420.59;4938764;29;20047;-69
2021/12/27 03:28:13;;;;;;;22.80;3.13;;;;;;;11.81;89.35;99424.88;4938055;29;20625;-70
2021/12/27 03:30:41;;;;;;;17.80;3.28;;;;;;;11.89;89.02;99425.88;4939257;29;20052;-69
2021/12/27 03:33:09;;;;;;;16.85;3.50;;;;;;;11.94;88.95;99417.34;4939528;29;20059;-70
2021/12/27 03:35:40;;;;;;;13.10;2.80;;;;;;;12.20;88.42;99412.13;4938854;29;20044;-69
2021/12/27 03:38:09;;;;;;;15.63;3.63;;;;;;;11.96;88.22;99404.78;4939030;29;20055;-69
2021/12/27 03:40:39;;;;;;;16.77;3.75;;;;;;;11.89;88.81;99410.13;4938883;29;20059;-69
2021/12/27 03:43:06;;;;;;;19.52;5.70;;;;;;;11.93;88.77;99411.03;4938837;29;20062;-69
2021/12/27 03:45:39;;;;;;;18.10;3.63;;;;;;;11.88;88.95;99399.44;4938488;29;20060;-69
2021/12/27 03:48:08;;;;;;;17.42;3.80;;;;;;;12.01;88.46;99392.69;4937915;29;20059;-69
2021/12/27 03:50:36;;;;;;;20.77;4.53;;;;;;;12.08;88.03;99385.38;4939001;29;20039;-69
2021/12/27 03:53:04;;;;;;;19.33;3.10;;;;;;;12.08;87.62;99376.31;4938876;29;20071;-69
2021/12/27 03:55:32;;;;;;;16.73;3.03;;;;;;;11.81;88.39;99377.19;4938335;29;20067;-69
2021/12/27 03:58:22;;;;;;;19.27;3.30;;;;;;;11.75;89.06;99386.88;4938501;29;20051;-69
2021/12/27 04:01:02;;;;;;;24.40;4.05;;;;;;;11.61;89.95;99387.25;4937353;29;20047;-69
2021/12/27 04:03:30;;;;;;;25.02;3.55;;;;;;;11.73;90.04;99376.19;4924507;29;20060;-69
2021/12/27 04:05:58;;;;;;;18.27;3.30;;;;;;;11.76;90.12;99388.47;4918845;29;20063;-69
2021/12/27 04:08:26;;;;;;;19.38;3.53;;;;;;;11.78;89.89;99375.13;4919395;29;20055;-69
2021/12/27 04:10:55;;;;;;;16.40;4.10;;;;;;;11.71;90.25;99378.50;4918167;29;20087;-69
2021/12/27 04:13:23;;;;;;;13.52;3.17;;;;;;;11.77;90.18;99374.31;4919196;29;20052;-70
2021/12/27 04:15:51;;;;;;;15.77;3.53;;;;;;;11.83;89.53;99378.44;4918299;29;20063;-69
2021/12/27 04:18:19;;;;;;;30.27;4.05;;;;;;;11.87;89.27;99361.97;4918237;29;20520;-69
2021/12/27 04:20:47;;;;;;;21.33;3.70;;;;;;;11.72;90.05;99368.25;4918171;29;20056;-70
2021/12/27 04:23:15;;;;;;;20.88;3.90;;;;;;;11.70;89.83;99363.09;4902172;29;20056;-70
2021/12/27 04:25:43;;;;;;;15.57;4.07;;;;;;;11.76;89.83;99367.22;4901161;29;20048;-69
2021/12/27 04:28:10;;;;;;;17.10;4.13;;;;;;;11.80;89.17;99370.06;4917944;29;20055;-70
2021/12/27 04:30:38;;;;;;;24.80;4.03;;;;;;;11.90;88.94;99370.34;4919245;29;20056;-70
2021/12/27 04:33:06;;;;;;;25.65;3.85;;;;;;;11.82;88.48;99362.25;4919886;29;20060;-69
2021/12/27 04:35:34;;;;;;;19.33;3.65;;;;;;;11.77;88.76;99368.81;4918649;29;20055;-69
2021/12/27 04:38:02;;;;;;;18.58;3.40;;;;;;;11.55;89.94;99365.78;4919284;29;20052;-69
2021/12/27 04:40:35;;;;;;;17.25;3.58;;;;;;;11.59;90.44;99369.47;4902126;29;20055;-70
2021/12/27 04:43:07;;;;;;;17.52;3.50;;;;;;;11.72;89.88;99365.50;4918957;29;20052;-69
2021/12/27 04:45:35;;;;;;;15.73;3.40;;;;;;;11.71;89.35;99366.66;4918431;29;20063;-69
2021/12/27 04:48:02;;;;;;;20.77;4.10;;;;;;;11.92;89.25;99370.00;4918867;29;20400;-69
2021/12/27 04:50:29;;;;;;;16.90;3.55;;;;;;;11.68;89.08;99378.41;4918908;29;20048;-69
2021/12/27 04:52:57;;;;;;;23.52;3.58;;;;;;;11.66;89.61;99386.22;4919099;29;20056;-69
2021/12/27 04:55:25;;;;;;;24.77;3.70;;;;;;;11.84;89.45;99380.03;4918399;29;20439;-69
2021/12/27 04:57:53;;;;;;;20.73;3.58;;;;;;;11.78;88.98;99384.22;4917485;29;20056;-70
2021/12/27 05:00:20;;;;;;;20.73;3.70;;;;;;;11.64;89.78;99392.09;4918637;29;20044;-68
2021/12/27 05:02:48;;;;;;;18.08;4.32;;;;;;;11.81;89.34;99393.72;4926186;29;20052;-69
2021/12/27 05:05:16;;;;;;;20.63;3.47;;;;;;;11.87;88.92;99395.09;4935922;29;20052;-69
2021/12/27 05:07:44;;;;;;;18.83;3.30;;;;;;;11.69;89.17;99411.16;4937799;29;20051;-70
2021/12/27 05:10:12;;;;;;;16.30;3.70;;;;;;;11.72;89.53;99406.88;4938344;29;20619;-70
2021/12/27 05:12:39;;;;;;;24.02;4.07;;;;;;;11.80;89.07;99397.66;4952231;29;20059;-70
2021/12/27 05:15:07;;;;;;;18.00;3.38;;;;;;;11.62;89.52;99399.09;4952393;28;20062;-69
2021/12/27 05:17:34;;;;;;;16.67;3.20;;;;;;;11.78;89.53;99397.19;4937698;29;20064;-69
2021/12/27 05:20:05;;;;;;;21.30;4.30;;;;;;;11.77;89.49;99395.63;4937943;29;20058;-69
2021/12/27 05:22:32;;;;;;;16.90;3.53;;;;;;;11.91;88.87;99391.25;4937607;29;20059;-69
2021/12/27 05:25:00;;;;;;;21.90;3.53;;;;;;;11.84;88.20;99395.78;4935557;29;20060;-70
2021/12/27 05:27:27;;;;;;;16.77;3.80;;;;;;;11.91;88.35;99388.50;4936193;29;20063;-69
2021/12/27 05:30:13;;;;;;;18.42;4.10;;;;;;;11.84;88.46;99393.81;4935937;29;20055;-68
2021/12/27 05:32:40;;;;;;;21.17;4.40;;;;;;;11.80;88.99;99390.16;4952366;28;20055;-69
2021/12/27 05:35:09;;;;;;;20.27;3.72;;;;;;;11.77;89.00;99379.06;4937306;29;20674;-70
2021/12/27 05:37:37;;;;;;;18.15;4.25;;;;;;;11.64;89.30;99372.81;4954012;28;20067;-69
2021/12/27 05:40:08;;;;;;;24.23;3.85;;;;;;;11.82;89.01;99365.00;4940865;29;20052;-70
2021/12/27 05:42:35;;;;;;;13.70;3.75;;;;;;;11.58;89.27;99365.88;4940974;29;20059;-69
2021/12/27 05:45:04;;;;;;;19.17;4.30;;;;;;;11.56;90.18;99364.66;4939239;29;20063;-69
2021/12/27 05:47:32;;;;;;;20.75;4.32;;;;;;;11.64;90.02;99347.13;4940918;29;20070;-69
2021/12/27 05:49:59;;;;;;;20.67;4.82;;;;;;;11.65;89.67;99332.22;4941067;29;20066;-69
2021/12/27 05:52:26;;;;;;;20.25;3.97;;;;;;;11.68;90.02;99337.03;4940987;29;20388;-69
2021/12/27 05:54:53;;;;;;;24.10;4.03;;;;;;;11.82;89.55;99318.88;4938921;29;20060;-69
2021/12/27 05:57:20;;;;;;;16.30;3.80;;;;;;;11.69;89.22;99319.31;4940445;29;20048;-69
2021/12/27 05:59:48;;;;;;;16.42;4.68;;;;;;;11.56;89.85;99298.47;4955215;29;20047;-69
2021/12/27 06:02:16;;;;;;;16.95;4.22;;;;;;;11.27;90.97;99294.97;4938008;29;20056;-69
2021/12/27 06:04:44;;;;;;;19.73;4.45;;;;;;;11.34;91.16;99295.16;4921538;29;20065;-69
2021/12/27 06:07:11;;;;;;;15.23;4.68;;;;;;;11.26;91.67;99276.78;4921787;29;20480;-70
2021/12/27 06:09:38;;;;;;;18.75;4.20;;;;;;;11.14;92.76;99279.63;4920286;29;20071;-68
2021/12/27 06:12:06;;;;;;;20.95;4.70;;;;;;;11.26;92.70;99265.78;4921314;29;20056;-69
2021/12/27 06:14:33;;;;;;;15.88;4.05;;;;;;;11.11;92.38;99260.22;4919976;29;20385;-69
2021/12/27 06:17:01;;;;;;;17.92;4.75;;;;;;;11.34;91.97;99248.28;4921499;29;20416;-70
2021/12/27 06:19:28;;;;;;;15.18;4.28;;;;;;;11.33;91.87;99232.88;4921243;29;20056;-70
2021/12/27 06:21:56;;;;;;;18.38;4.40;;;;;;;11.38;90.87;99225.50;4921348;29;20059;-70
2021/12/27 06:24:23;;;;;;;16.63;5.03;;;;;;;11.05;92.55;99218.34;4921222;29;20048;-69
2021/12/27 06:26:50;;;;;;;17.73;4.53;;;;;;;10.95;93.38;99218.88;4921044;29;20081;-70
2021/12/27 06:29:17;;;;;;;15.90;4.95;;;;;;;10.88;93.93;99212.38;4921092;29;20063;-69
2021/12/27 06:31:45;;;;;;;18.15;4.85;;;;;;;11.04;93.29;99197.47;4919859;29;20059;-69
2021/12/27 06:34:13;;;;;;;15.15;4.57;;;;;;;11.01;93.02;99187.16;4921343;29;20051;-70
2021/12/27 06:36:41;;;;;;;20.05;4.53;;;;;;;11.01;92.89;99180.84;4921008;29;20063;-69
2021/12/27 06:39:08;;;;;;;14.30;4.03;;;;;;;10.93;92.48;99168.81;4920466;29;20052;-69
2021/12/27 06:41:36;;;;;;;20.92;4.25;;;;;;;10.84;92.34;99170.16;4920288;29;20500;-69
2021/12/27 06:44:04;;;;;;;15.07;5.13;;;;;;;10.87;92.79;99169.44;4921120;29;20059;-70
2021/12/27 06:46:31;;;;;;;16.67;4.53;;;;;;;10.87;92.11;99164.75;4920549;29;20052;-70
2021/12/27 06:48:59;;;;;;;17.45;5.40;;;;;;;10.91;91.79;99164.84;4920209;29;20056;-70
2021/12/27 06:51:26;;;;;;;17.00;5.05;;;;;;;10.74;91.92;99165.16;4920978;29;20044;-69
2021/12/27 06:53:53;;;;;;;13.77;5.20;;;;;;;10.71;91.75;99174.91;4920712;29;20079;-66
2021/12/27 06:56:20;;;;;;;21.13;5.25;;;;;;;10.85;91.75;99172.56;4903023;29;20588;-68
2021/12/27 06:58:48;;;;;;;14.93;4.60;;;;;;;10.76;91.77;99182.13;4920784;29;20059;-67
2021/12/27 07:01:15;;;;;;;14.85;5.00;;;;;;;10.64;92.52;99184.94;4919738;29;20056;-70
2021/12/27 07:03:42;;;;;;;17.50;5.43;;;;;;;10.61;93.03;99180.13;4935174;29;20086;-69
2021/12/27 07:06:10;;;;;;;11.48;4.90;;;;;;;10.50;93.21;99170.75;4939373;29;20055;-70
2021/12/27 07:08:37;;;;;;;14.00;4.70;;;;;;;10.50;93.65;99171.56;4939672;29;20047;-71
2021/12/27 07:11:04;;;;;;;15.60;5.20;;;;;;;10.58;93.58;99175.34;4937800;29;20078;-69
2021/12/27 07:13:32;;;;;;;13.02;4.55;;;;;;;10.83;92.83;99177.63;4921997;29;20063;-69
2021/12/27 07:15:59;;;;;;;14.85;4.50;;;;;;;10.79;91.98;99173.16;4939160;29;20047;-68
2021/12/27 07:18:26;;;;;;;14.68;5.75;;;;;;;10.81;91.63;99168.13;4939048;29;20056;-70
2021/12/27 07:20:54;;;;;;;12.88;5.10;;;;;;;10.63;92.41;99164.88;4939317;29;20048;-69
2021/12/27 07:23:21;;;;;;;15.93;4.35;;;;;;;10.59;92.68;99166.72;4939197;29;20166;-69
2021/12/27 07:25:48;;;;;;;13.65;4.30;;;;;;;10.70;91.98;99165.06;4938832;29;20059;-68
2021/12/27 07:28:16;;;;;;;12.40;4.25;;;;;;;10.74;92.20;99167.94;4939030;29;20079;-69
2021/12/27 07:30:43;;;;;;;13.50;4.32;;;;;;;10.66;92.25;99175.19;4937980;29;20047;-70
2021/12/27 07:33:11;;;;;;;9.50;3.92;;;;;;;10.77;92.34;99170.78;4939038;29;20055;-69
2021/12/27 07:35:39;;;;;;;17.73;5.13;;;;;;;10.63;91.61;99184.16;4938616;29;20055;-70
2021/12/27 07:38:07;;;;;;;14.48;4.57;;;;;;;10.48;92.07;99184.88;4939046;29;20056;-69
2021/12/27 07:40:34;;;;;;;9.73;3.78;;;;;;;10.39;93.08;99191.69;4937402;29;20062;-71
2021/12/27 07:43:01;;;;;;;15.32;4.22;;;;;;;10.62;92.47;99188.03;4938853;29;20051;-70
2021/12/27 07:45:29;;;;;;;9.73;3.97;;;;;;;10.27;93.06;99184.25;4937258;29;20407;-71
2021/12/27 07:47:57;;;;;;;13.02;3.92;;;;;;;10.29;93.80;99170.19;4938714;29;20490;-69
2021/12/27 07:50:24;;;;;;;14.05;4.05;;;;;;;10.46;93.58;99169.88;4939052;29;20468;-70
2021/12/27 07:52:51;;;;;;;11.25;3.85;;;;;;;10.57;92.32;99162.69;4921460;29;20064;-70
2021/12/27 07:55:19;;;;;;;13.57;4.00;;;;;;;10.36;92.32;99181.38;4938555;29;20510;-69
2021/12/27 07:57:46;;;;;;;10.25;3.40;;;;;;;10.42;92.41;99172.53;4937129;29;20066;-70
2021/12/27 08:00:14;;;;;;;14.93;3.42;;;;;;;10.35;92.28;99177.03;4938007;29;20067;-68
2021/12/27 08:02:42;;;;;;;10.43;2.97;;;;;;;10.51;92.11;99169.63;4931886;29;20044;-68
2021/12/27 08:05:10;;;;;;;10.20;3.47;;;;;;;10.47;91.42;99160.47;4920188;29;20060;-67
2021/12/27 08:07:37;;;;;;;13.38;3.70;;;;;;;10.39;91.33;99164.16;4918095;29;20071;-67
2021/12/27 08:10:06;;;;;;;11.20;3.45;;;;;;;10.30;91.94;99161.56;4919360;29;20063;-67
2021/12/27 08:12:34;;;;;;;11.63;4.03;;;;;;;10.45;91.38;99158.06;4917836;29;20075;-66
2021/12/27 08:15:05;;;;;;;10.23;3.13;;;;;;;10.56;90.89;99159.16;4919351;29;20465;-67
2021/12/27 08:17:33;;;;;;;10.50;3.40;;;;;;;10.43;90.40;99162.31;4919224;29;20056;-67
2021/12/27 08:20:00;;;;;;;10.77;3.35;;;;;;;10.46;90.37;99158.88;4918065;29;20538;-67
2021/12/27 08:22:27;;;;;;;9.63;3.17;;;;;;;10.46;90.40;99159.66;4919360;29;20059;-68
2021/12/27 08:24:55;;;;;;;8.32;3.13;;;;;;;10.41;90.15;99153.63;4919238;29;20056;-67
2021/12/27 08:27:24;;;;;;;11.77;3.13;;;;;;;10.55;90.08;99145.75;4917654;29;20055;-66
2021/12/27 08:29:52;;;;;;;14.07;2.95;;;;;;;10.55;89.39;99148.50;4919156;29;20115;-67
2021/12/27 08:32:19;;;;;;;6.75;2.78;;;;;;;10.57;89.03;99148.94;4919252;29;20511;-68
2021/12/27 08:34:47;;;;;;;8.50;2.88;;;;;;;10.52;88.73;99147.25;4919076;29;20052;-67
2021/12/27 08:37:14;;;;;;;8.45;2.90;;;;;;;10.46;89.23;99145.09;4918992;29;20067;-67
2021/12/27 08:39:41;;;;;;;8.38;2.85;;;;;;;10.38;89.30;99143.28;4918919;29;20052;-67
2021/12/27 08:42:10;;;;;;;8.73;2.95;;;;;;;10.21;90.14;99149.91;4902292;29;20052;-67
2021/12/27 08:44:38;;;;;;;10.67;3.30;;;;;;;10.22;90.03;99151.50;4919232;29;20078;-67
2021/12/27 08:47:06;;;;;;;10.40;3.53;;;;;;;10.33;90.29;99141.59;4918789;29;20299;-67
2021/12/27 08:49:33;;;;;;;8.40;3.10;;;;;;;10.71;88.74;99136.38;4902880;29;20060;-67
2021/12/27 08:52:21;;;;;;;8.40;3.00;;;;;;;10.59;88.56;99138.38;4918996;29;20048;-66
2021/12/27 08:54:49;;;;;;;11.07;3.22;;;;;;;10.72;88.94;99131.66;4902157;29;20048;-66
2021/12/27 08:57:16;;;;;;;8.05;2.80;;;;;;;10.62;88.00;99115.63;4918327;29;20067;-67
2021/12/27 08:59:43;;;;;;;7.90;2.92;;;;;;;10.57;89.05;99124.16;4917825;29;20056;-67
2021/12/27 09:02:12;;;;;;;12.57;3.15;;;;;;;10.46;89.60;99123.88;4920125;29;20059;-67
2021/12/27 09:04:39;;;;;;;10.20;2.95;;;;;;;10.57;89.13;99124.16;4936701;29;20066;-67
2021/12/27 09:07:08;;;;;;;8.30;2.95;;;;;;;10.23;89.86;99122.03;4937352;29;20056;-66
2021/12/27 09:09:35;;;;;;;7.07;2.70;;;;;;;10.13;90.81;99118.63;4937584;29;20074;-67
2021/12/27 09:12:03;;;;;;;10.27;2.63;;;;;;;10.09;91.73;99128.72;4939534;29;20058;-67
2021/12/27 09:14:30;;;;;;;8.30;2.97;;;;;;;10.22;91.44;99126.72;4941710;29;20051;-67
2021/12/27 09:16:58;;;;;;;10.05;2.88;;;;;;;10.32;90.70;99123.47;4941552;29;20058;-67
2021/12/27 09:19:25;;;;;;;9.88;2.97;;;;;;;10.27;90.77;99136.69;4956006;28;20058;-68
2021/12/27 09:21:53;;;;;;;7.10;2.70;;;;;;;10.23;91.20;99124.78;4940986;29;20048;-68
2021/12/27 09:24:20;;;;;;;8.32;2.70;;;;;;;10.34;91.03;99121.16;4956090;28;20048;-68
2021/12/27 09:26:47;;;;;;;8.00;2.65;;;;;;;10.26;91.16;99122.13;4939826;29;20058;-67
2021/12/27 09:29:15;;;;;;;7.30;2.55;;;;;;;10.47;90.79;99128.25;4941504;29;20056;-67
2021/12/27 09:31:42;;;;;;;6.13;2.85;;;;;;;10.72;89.41;99124.19;4940167;29;20056;-67
2021/12/27 09:34:09;;;;;;;8.50;2.85;;;;;;;10.75;88.84;99126.25;4941483;29;20063;-67
2021/12/27 09:36:36;;;;;;;6.82;2.72;;;;;;;10.51;89.51;99120.88;4941332;29;20114;-68
2021/12/27 09:39:04;;;;;;;10.60;2.72;;;;;;;10.20;90.77;99112.50;4941083;29;20553;-67
2021/12/27 09:41:32;;;;;;;7.85;2.55;;;;;;;10.11;92.11;99111.88;4940908;29;20056;-67
2021/12/27 09:43:59;;;;;;;8.00;2.65;;;;;;;10.28;92.33;99119.03;4923739;29;20661;-71
2021/12/27 09:46:26;;;;;;;8.27;3.03;;;;;;;10.33;92.19;99114.06;4939180;29;20055;-70
2021/12/27 09:48:56;;;;;;;9.60;2.92;;;;;;;10.30;92.53;99109.28;4941152;29;20365;-70
2021/12/27 09:51:24;;;;;;;10.23;3.40;;;;;;;10.11;93.42;99100.88;4955695;28;20070;-70
2021/12/27 09:53:52;;;;;;;8.65;3.38;;;;;;;10.10;94.27;99099.25;4940958;29;20047;-70
2021/12/27 09:56:19;;;;;;;10.00;3.10;;;;;;;10.16;94.34;99097.88;4940531;29;20068;-69
2021/12/27 09:58:46;;;;;;;8.73;3.15;;;;;;;10.19;94.16;99108.16;4940395;29;20058;-71
2021/12/27 10:01:13;;;;;;;8.00;3.00;;;;;;;10.39;93.89;99109.91;4939573;29;20495;-70
2021/12/27 10:03:50;;;;;;;10.52;3.20;;;;;;;10.35;93.60;99117.28;4943566;28;20641;-70
2021/12/27 10:06:20;;;;;;;6.43;2.92;;;;;;;10.30;93.33;99117.53;4940662;29;20078;-70
2021/12/27 10:08:50;;;;;;;7.53;2.95;;;;;;;10.43;93.66;99102.56;4939513;29;20058;-70
2021/12/27 10:11:18;;;;;;;7.40;3.10;;;;;;;10.30;93.97;99103.78;4940564;29;20059;-70
2021/12/27 10:13:58;;;;;;;8.05;3.15;;;;;;;10.33;94.23;99113.28;4940771;29;20379;-69
2021/12/27 10:16:29;;;;;;;6.43;2.78;;;;;;;10.37;94.53;99114.97;4940320;29;20420;-70
2021/12/27 10:18:59;;;;;;;7.05;3.00;;;;;;;10.49;93.71;99103.91;4940411;29;20055;-70
2021/12/27 10:21:27;;;;;;;6.20;2.80;;;;;;;10.60;92.97;99107.75;4940418;29;20052;-70
2021/12/27 10:24:27;;;;;;;7.30;2.50;;;;;;;10.57;93.23;99102.94;4939501;29;20107;-69
2021/12/27 10:26:57;;;;;;;7.05;2.63;;;;;;;10.48;93.23;99101.53;4936022;29;20067;-70
2021/12/27 10:29:27;;;;;;;5.95;2.50;;;;;;;10.55;93.09;99096.97;4940322;29;20063;-71
2021/12/27 10:32:04;;;;;;;;;;;;;;;10.59;93.52;99103.41;4939606;29;20047;-70
2021/12/27 10:34:37;;;;;;;5.15;2.28;;;;;;;10.60;93.19;99102.22;4939078;29;20402;-71
2021/12/27 10:37:22;;;;;;;8.25;2.10;;;;;;;10.74;91.98;99088.84;4940067;29;20055;-70
2021/12/27 10:40:10;;;;;;;8.18;3.10;;;;;;;10.84;91.63;99082.03;4938565;29;20059;-70
2021/12/27 10:42:43;;;;;;;6.97;2.88;;;;;;;11.01;91.08;99081.66;4938131;29;20051;-70
2021/12/27 10:45:12;;;;;;;7.57;3.05;;;;;;;10.99;89.95;99090.28;4937910;29;20059;-71
2021/12/27 10:47:41;;;;;;;10.70;2.80;;;;;;;10.65;91.41;99088.19;4939962;29;20059;-69
2021/12/27 10:50:22;;;;;;;11.63;7.18;;;;;;;10.72;91.43;99085.63;4938176;29;20083;-69
2021/12/27 10:53:05;;;;;;;9.25;4.28;;;;;;;10.67;92.28;99091.41;4938037;29;20400;-69
2021/12/27 10:55:39;;;;;;;8.05;3.75;;;;;;;10.76;92.00;99088.47;4907098;29;20055;-70
2021/12/27 10:58:14;;;;;;;11.30;6.43;;;;;;;10.84;91.74;99088.34;4939994;29;20409;-71
2021/12/27 11:00:43;;;;;;;13.00;7.15;;;;;;;10.84;91.69;99093.03;4939955;29;20059;-69
2021/12/27 11:03:25;;;;;;;11.43;6.63;;;;;;;11.03;90.75;99090.38;4939750;29;20387;-70
2021/12/27 11:05:52;;;;;;;10.63;6.10;;;;;;;11.00;90.96;99108.41;4922703;29;20060;-70
2021/12/27 11:08:26;;;;;;;9.43;4.72;;;;;;;10.92;91.26;99111.34;4939525;29;20076;-71
2021/12/27 11:10:54;;;;;;;13.57;7.25;;;;;;;11.27;90.51;99102.00;4939530;29;20048;-70
2021/12/27 11:13:23;;;;;;;7.93;4.43;;;;;;;11.06;90.80;99100.69;4939567;29;20062;-70
2021/12/27 11:15:50;;;;;;;8.80;4.32;;;;;;;10.94;91.69;99104.34;4938364;29;20051;-69
2021/12/27 11:18:18;;;;;;;10.82;4.05;;;;;;;11.24;90.46;99102.72;4939277;29;20051;-70
2021/12/27 11:20:54;;;;;;;8.15;4.18;;;;;;;11.34;89.83;99110.47;4954085;28;20501;-69
2021/12/27 11:23:23;;;;;;;12.18;4.68;;;;;;;11.32;90.09;99107.25;4939155;29;20052;-70
2021/12/27 11:26:03;;;;;;;11.13;6.78;;;;;;;11.28;89.79;99116.56;4939261;29;20055;-70
2021/12/27 11:28:39;;;;;;;13.63;7.90;;;;;;;11.58;89.37;99105.88;4939189;29;20060;-70
2021/12/27 11:31:15;;;;;;;7.63;4.10;;;;;;;11.66;88.51;99105.72;4939219;29;20052;-69
2021/12/27 11:34:02;;;;;;;5.90;3.30;;;;;;;11.62;88.71;99099.28;4937925;29;20055;-70
2021/12/27 11:36:38;;;;;;;6.07;3.03;;;;;;;11.69;88.00;99101.44;4953764;29;20146;-70
2021/12/27 11:39:27;;;;;;;5.90;2.90;;;;;;;11.91;86.65;99093.25;4953487;28;20499;-70
2021/12/27 11:42:07;;;;;;;4.90;2.45;;;;;;;11.93;86.55;99090.13;4953412;28;20055;-70